createdAt,value
2022-11-16T00:01:08.713Z,14.20
2022-11-16T00:03:38.874Z,12.20
2022-11-16T00:06:10.054Z,10.80
2022-11-16T00:08:41.861Z,9.70
2022-11-16T00:11:13.964Z,9.15
2022-11-16T00:13:46.725Z,8.85
2022-11-16T00:16:18.317Z,11.45
2022-11-16T00:18:48.273Z,10.35
2022-11-16T00:21:18.077Z,10.30
2022-11-16T00:23:47.799Z,11.00
2022-11-16T00:26:17.940Z,10.57
2022-11-16T00:28:50.515Z,12.48
2022-11-16T00:31:20.271Z,12.73
2022-11-16T00:33:50.456Z,13.50
2022-11-16T00:36:20.400Z,12.10
2022-11-16T00:38:50.128Z,12.23
2022-11-16T00:41:19.857Z,11.85
2022-11-16T00:43:52.189Z,12.65
2022-11-16T00:46:21.941Z,8.65
2022-11-16T00:48:51.693Z,8.38
2022-11-16T00:51:21.459Z,8.02
2022-11-16T00:53:51.771Z,8.18
2022-11-16T00:56:21.520Z,7.72
2022-11-16T00:58:53.843Z,8.80
2022-11-16T01:01:24.582Z,7.68
2022-11-16T01:03:54.925Z,8.23
2022-11-16T01:06:25.427Z,12.23
2022-11-16T01:08:55.960Z,14.10
2022-11-16T01:11:41.966Z,10.43
2022-11-16T01:14:15.138Z,10.73
2022-11-16T01:16:46.343Z,10.18
2022-11-16T01:19:16.133Z,10.95
2022-11-16T01:21:45.839Z,11.15
2022-11-16T01:24:15.737Z,11.18
2022-11-16T01:26:46.478Z,10.18
2022-11-16T01:29:19.261Z,9.90
2022-11-16T01:31:55.510Z,9.60
2022-11-16T01:34:25.334Z,11.35
2022-11-16T01:36:58.290Z,12.98
2022-11-16T01:39:31.646Z,11.65
2022-11-16T01:42:04.310Z,12.32
2022-11-16T01:45:00.902Z,15.38
2022-11-16T01:47:31.650Z,10.27
2022-11-16T01:50:07.255Z,17.77
2022-11-16T01:52:40.305Z,19.70
2022-11-16T01:55:10.769Z,20.65
2022-11-16T01:58:00.120Z,10.88
2022-11-16T02:00:34.099Z,13.52
2022-11-16T02:03:24.163Z,11.93
2022-11-16T02:09:19.474Z,9.27
2022-11-16T02:12:08.548Z,8.15
2022-11-16T02:14:52.575Z,8.43
2022-11-16T02:17:34.678Z,8.13
2022-11-16T02:20:41.986Z,9.05
2022-11-16T02:23:25.641Z,8.93
2022-11-16T02:26:02.975Z,9.20
2022-11-16T02:28:37.619Z,10.32
2022-11-16T02:31:13.687Z,10.35
2022-11-16T02:33:44.712Z,10.30
2022-11-16T02:36:18.721Z,11.15
2022-11-16T02:38:52.045Z,12.30
2022-11-16T02:41:24.063Z,11.77
2022-11-16T02:43:56.098Z,12.30
2022-11-16T02:46:31.354Z,13.52
2022-11-16T02:49:06.213Z,12.85
2022-11-16T02:51:36.150Z,13.80
2022-11-16T02:54:12.998Z,13.88
2022-11-16T02:56:49.665Z,13.90
2022-11-16T02:59:21.700Z,12.88
2022-11-16T03:02:00.057Z,14.32
2022-11-16T03:04:32.968Z,15.02
2022-11-16T03:07:05.301Z,14.00
2022-11-16T03:09:37.681Z,12.05
2022-11-16T03:12:08.605Z,12.40
2022-11-16T03:14:42.849Z,12.65
2022-11-16T03:17:20.325Z,12.75
2022-11-16T03:19:54.140Z,13.23
2022-11-16T03:22:30.206Z,13.27
2022-11-16T03:25:00.205Z,14.27
2022-11-16T03:27:38.152Z,12.82
2022-11-16T03:30:10.993Z,13.80
2022-11-16T03:32:50.993Z,13.20
2022-11-16T03:35:25.950Z,14.80
2022-11-16T03:37:59.025Z,15.15
2022-11-16T03:40:32.027Z,13.93
2022-11-16T03:43:02.460Z,15.50
2022-11-16T03:45:33.451Z,13.50
2022-11-16T03:48:05.991Z,13.77
2022-11-16T03:50:36.907Z,12.02
2022-11-16T03:53:06.756Z,14.50
2022-11-16T03:55:38.606Z,13.35
2022-11-16T03:58:08.626Z,15.40
2022-11-16T04:00:38.721Z,15.25
2022-11-16T04:03:15.025Z,14.98
2022-11-16T04:05:57.424Z,14.00
2022-11-16T04:08:41.202Z,12.95
2022-11-16T04:11:26.797Z,17.75
2022-11-16T04:14:09.341Z,17.65
2022-11-16T04:17:00.558Z,14.73
2022-11-16T04:19:45.314Z,16.33
2022-11-16T04:22:31.473Z,15.32
2022-11-16T04:25:06.766Z,13.50
2022-11-16T04:27:48.958Z,15.27
2022-11-16T04:30:20.811Z,14.63
2022-11-16T04:33:04.052Z,16.27
2022-11-16T04:35:49.213Z,20.25
2022-11-16T04:38:18.901Z,15.05
2022-11-16T04:40:48.674Z,13.93
2022-11-16T04:43:18.369Z,12.05
2022-11-16T04:46:01.117Z,13.93
2022-11-16T04:48:38.150Z,11.98
2022-11-16T04:51:11.301Z,10.77
2022-11-16T04:53:41.838Z,10.85
2022-11-16T04:56:19.877Z,10.25
2022-11-16T04:58:49.948Z,10.75
2022-11-16T05:01:40.073Z,11.88
2022-11-16T05:04:10.707Z,9.57
2022-11-16T05:06:43.577Z,9.50
2022-11-16T05:09:14.437Z,10.25
2022-11-16T05:11:44.378Z,9.20
2022-11-16T05:14:16.000Z,9.55
2022-11-16T05:16:46.349Z,9.18
2022-11-16T05:19:37.428Z,12.43
2022-11-16T05:22:09.925Z,12.18
2022-11-16T05:24:41.365Z,13.35
2022-11-16T05:27:12.850Z,11.68
2022-11-16T05:29:43.908Z,12.18
2022-11-16T05:32:17.848Z,11.38
2022-11-16T05:34:47.779Z,10.02
2022-11-16T05:37:21.556Z,10.57
2022-11-16T05:39:51.355Z,10.95
2022-11-16T05:42:22.906Z,9.23
2022-11-16T05:44:54.823Z,10.77
2022-11-16T05:47:24.544Z,11.25
2022-11-16T05:49:55.216Z,23.65
2022-11-16T05:52:29.356Z,30.75
2022-11-16T05:55:03.557Z,22.48
2022-11-16T05:57:37.577Z,20.63
2022-11-16T06:00:10.212Z,19.52
2022-11-16T06:02:49.230Z,18.77
2022-11-16T06:05:25.561Z,13.73
2022-11-16T06:07:59.040Z,12.20
2022-11-16T06:10:29.851Z,14.18
2022-11-16T06:13:01.270Z,11.13
2022-11-16T06:15:31.830Z,11.68
2022-11-16T06:18:02.009Z,9.18
2022-11-16T06:20:32.945Z,8.68
2022-11-16T06:23:06.213Z,11.05
2022-11-16T06:25:36.721Z,11.52
2022-11-16T06:28:08.445Z,16.08
2022-11-16T06:30:39.604Z,11.20
2022-11-16T06:33:11.610Z,13.40
2022-11-16T06:35:42.040Z,13.43
2022-11-16T06:38:18.701Z,12.93
2022-11-16T06:40:54.442Z,15.77
2022-11-16T06:43:26.835Z,15.55
2022-11-16T06:46:01.069Z,17.17
2022-11-16T06:48:31.104Z,14.93
2022-11-16T06:51:02.574Z,13.30
2022-11-16T06:53:35.775Z,14.50
2022-11-16T06:56:08.560Z,12.82
2022-11-16T06:58:43.851Z,14.52
2022-11-16T07:01:15.905Z,16.13
2022-11-16T07:03:47.634Z,14.65
2022-11-16T07:06:18.238Z,14.35
2022-11-16T07:08:52.073Z,13.68
2022-11-16T07:11:28.018Z,16.55
2022-11-16T07:13:58.588Z,16.08
2022-11-16T07:16:28.676Z,22.52
2022-11-16T07:19:03.058Z,25.80
2022-11-16T07:21:35.107Z,13.63
2022-11-16T07:24:12.145Z,12.55
2022-11-16T07:26:42.430Z,12.45
2022-11-16T07:29:16.792Z,14.07
2022-11-16T07:32:06.426Z,17.55
2022-11-16T07:34:59.249Z,20.05
2022-11-16T07:37:31.219Z,19.10
2022-11-16T07:40:05.163Z,18.58
2022-11-16T07:42:35.745Z,19.25
2022-11-16T07:45:38.063Z,19.92
2022-11-16T07:48:12.581Z,21.42
2022-11-16T07:51:04.112Z,21.55
2022-11-16T07:53:36.338Z,24.52
2022-11-16T07:56:11.380Z,22.65
2022-11-16T07:58:44.380Z,15.88
2022-11-16T08:01:16.328Z,14.40
2022-11-16T08:03:49.322Z,12.73
2022-11-16T08:06:24.198Z,11.35
2022-11-16T08:08:58.790Z,12.88
2022-11-16T08:11:31.862Z,13.23
2022-11-16T08:14:01.758Z,13.88
2022-11-16T08:16:34.213Z,11.63
2022-11-16T08:19:13.171Z,12.45
2022-11-16T08:21:45.875Z,13.38
2022-11-16T08:24:18.365Z,11.93
2022-11-16T08:26:51.087Z,13.43
2022-11-16T08:29:21.088Z,13.90
2022-11-16T08:31:54.493Z,13.80
2022-11-16T08:34:26.945Z,12.55
2022-11-16T08:37:01.617Z,14.20
2022-11-16T08:39:43.115Z,13.40
2022-11-16T08:42:16.209Z,13.30
2022-11-16T08:44:51.037Z,14.05
2022-11-16T08:47:23.306Z,13.95
2022-11-16T08:49:59.944Z,14.02
2022-11-16T08:52:32.980Z,15.55
2022-11-16T08:55:05.213Z,15.70
2022-11-16T08:57:38.505Z,19.95
2022-11-16T09:00:15.248Z,18.00
2022-11-16T09:02:45.289Z,18.30
2022-11-16T09:05:15.409Z,22.40
2022-11-16T09:07:46.234Z,19.80
2022-11-16T09:10:19.072Z,22.98
2022-11-16T09:12:51.646Z,20.75
2022-11-16T09:15:22.741Z,21.48
2022-11-16T09:17:55.342Z,25.20
2022-11-16T09:20:27.096Z,24.83
2022-11-16T09:22:56.955Z,24.58
2022-11-16T09:25:26.801Z,22.52
2022-11-16T09:28:01.540Z,25.77
2022-11-16T09:30:31.573Z,29.67
2022-11-16T09:33:01.566Z,25.17
2022-11-16T09:35:31.795Z,26.65
2022-11-16T09:38:02.382Z,26.80
2022-11-16T09:40:37.032Z,30.88
2022-11-16T09:43:15.513Z,28.13
2022-11-16T09:45:50.029Z,31.50
2022-11-16T09:48:20.262Z,32.05
2022-11-16T09:50:52.972Z,35.47
2022-11-16T09:53:37.279Z,31.27
2022-11-16T09:56:10.593Z,31.98
2022-11-16T09:58:46.829Z,31.55
2022-11-16T10:01:25.048Z,32.78
2022-11-16T10:03:59.742Z,33.35
2022-11-16T10:06:35.938Z,28.35
2022-11-16T10:09:06.159Z,27.52
2022-11-16T10:11:53.562Z,27.75
2022-11-16T10:14:47.388Z,31.52
2022-11-16T10:17:26.452Z,30.10
2022-11-16T10:19:59.374Z,27.88
2022-11-16T10:22:46.941Z,29.02
2022-11-16T10:25:19.911Z,29.85
2022-11-16T10:27:57.476Z,31.70
2022-11-16T10:30:31.281Z,30.25
2022-11-16T10:33:09.624Z,26.50
2022-11-16T10:35:43.066Z,25.67
2022-11-16T10:38:16.318Z,25.23
2022-11-16T10:40:49.934Z,23.38
2022-11-16T10:43:22.732Z,24.17
2022-11-16T10:46:01.067Z,22.92
2022-11-16T10:48:37.744Z,20.10
2022-11-16T10:51:08.362Z,25.08
2022-11-16T10:53:40.539Z,20.10
2022-11-16T10:56:18.853Z,24.23
2022-11-16T10:58:58.106Z,23.52
2022-11-16T11:01:39.769Z,24.13
2022-11-16T11:04:25.283Z,21.42
2022-11-16T11:06:57.770Z,22.63
2022-11-16T11:09:30.263Z,20.48
2022-11-16T11:12:28.148Z,23.25
2022-11-16T11:15:09.726Z,20.27
2022-11-16T11:17:44.577Z,20.85
2022-11-16T11:20:24.741Z,19.33
2022-11-16T11:22:58.337Z,21.98
2022-11-16T11:25:32.455Z,18.00
2022-11-16T11:30:57.464Z,20.63
2022-11-16T11:33:33.734Z,16.63
2022-11-16T11:36:09.217Z,16.90
2022-11-16T11:38:58.905Z,16.50
2022-11-16T11:41:31.600Z,15.38
2022-11-16T11:44:06.622Z,16.95
2022-11-16T11:47:28.503Z,15.13
2022-11-16T11:49:35.050Z,14.70
2022-11-16T11:52:09.481Z,13.25
2022-11-16T11:54:46.027Z,13.88
2022-11-16T11:57:20.716Z,12.90
2022-11-16T11:59:52.632Z,13.85
2022-11-16T12:02:35.822Z,15.52
2022-11-16T12:05:35.146Z,14.35
2022-11-16T12:10:46.285Z,11.70
2022-11-16T12:13:35.343Z,11.35
2022-11-16T12:16:12.958Z,11.13
2022-11-16T12:18:54.245Z,10.27
2022-11-16T12:21:38.517Z,12.00
2022-11-16T12:24:27.708Z,10.73
2022-11-16T12:27:05.474Z,10.63
2022-11-16T12:29:41.954Z,11.10
2022-11-16T12:32:28.546Z,9.63
2022-11-16T12:35:11.601Z,10.05
2022-11-16T12:37:49.818Z,9.57
2022-11-16T12:40:34.370Z,10.60
2022-11-16T12:43:12.005Z,9.35
2022-11-16T12:45:50.934Z,9.35
2022-11-16T12:48:44.092Z,9.43
2022-11-16T12:51:21.584Z,47.22
2022-11-16T12:54:22.231Z,45.35
2022-11-16T12:56:56.885Z,20.85
2022-11-16T12:59:50.851Z,15.20
2022-11-16T13:02:32.295Z,27.08
2022-11-16T13:05:07.906Z,38.83
2022-11-16T13:07:43.073Z,11.35
2022-11-16T13:10:20.029Z,7.72
2022-11-16T13:13:03.945Z,7.32
2022-11-16T13:15:46.493Z,7.35
2022-11-16T13:18:19.063Z,7.50
2022-11-16T13:20:52.313Z,7.18
2022-11-16T13:23:28.556Z,7.80
2022-11-16T13:26:10.980Z,6.85
2022-11-16T13:28:43.621Z,9.02
2022-11-16T13:31:17.482Z,9.20
2022-11-16T13:33:51.421Z,7.57
2022-11-16T13:36:43.787Z,9.30
2022-11-16T13:39:21.476Z,8.43
2022-11-16T13:42:08.307Z,8.25
2022-11-16T13:44:38.290Z,9.02
2022-11-16T13:47:10.455Z,8.77
2022-11-16T13:49:43.338Z,7.80
2022-11-16T13:52:23.679Z,7.35
2022-11-16T13:54:57.062Z,7.45
2022-11-16T13:57:32.614Z,8.00
2022-11-16T14:00:15.007Z,7.57
2022-11-16T14:02:46.575Z,8.27
2022-11-16T14:05:18.818Z,7.40
2022-11-16T14:07:52.913Z,7.53
2022-11-16T14:10:56.194Z,7.45
2022-11-16T14:13:47.372Z,8.13
2022-11-16T14:16:50.222Z,7.40
2022-11-16T14:19:55.217Z,7.00
2022-11-16T14:22:49.197Z,6.95
2022-11-16T14:25:33.776Z,6.50
2022-11-16T14:28:27.286Z,6.88
2022-11-16T14:31:09.006Z,6.18
2022-11-16T14:33:39.953Z,6.60
2022-11-16T14:36:11.501Z,6.78
2022-11-16T14:38:43.886Z,6.82
2022-11-16T14:41:22.145Z,6.85
2022-11-16T14:43:55.404Z,7.53
2022-11-16T14:46:29.932Z,6.85
2022-11-16T14:49:02.249Z,5.65
2022-11-16T14:51:36.244Z,6.28
2022-11-16T14:54:16.759Z,6.53
2022-11-16T14:56:59.962Z,6.28
2022-11-16T14:59:31.350Z,5.60
2022-11-16T15:02:07.989Z,6.15
2022-11-16T15:04:38.165Z,6.28
2022-11-16T15:07:09.465Z,6.70
2022-11-16T15:09:42.238Z,5.60
2022-11-16T15:12:29.511Z,7.70
2022-11-16T15:15:01.094Z,10.93
2022-11-16T15:17:33.667Z,11.75
2022-11-16T15:20:05.317Z,7.63
2022-11-16T15:22:42.910Z,9.73
2022-11-16T15:25:27.337Z,12.95
2022-11-16T15:27:59.023Z,12.63
2022-11-16T15:30:31.146Z,10.88
2022-11-16T15:33:06.336Z,9.25
2022-11-16T15:35:38.592Z,8.45
2022-11-16T15:38:10.322Z,10.43
2022-11-16T15:40:40.447Z,9.02
2022-11-16T15:43:11.829Z,8.93
2022-11-16T15:45:42.779Z,9.77
2022-11-16T15:48:19.964Z,6.13
2022-11-16T15:51:09.565Z,5.85
2022-11-16T15:53:42.091Z,6.97
2022-11-16T15:56:16.961Z,4.93
2022-11-16T15:58:47.978Z,5.57
2022-11-16T16:01:18.982Z,6.10
2022-11-16T16:03:57.856Z,5.38
2022-11-16T16:06:46.895Z,7.85
2022-11-16T16:09:24.697Z,9.00
2022-11-16T16:11:55.544Z,5.90
2022-11-16T16:14:29.425Z,7.70
2022-11-16T16:17:01.438Z,8.27
2022-11-16T16:19:43.874Z,10.55
2022-11-16T16:22:17.805Z,9.68
2022-11-16T16:24:49.141Z,15.10
2022-11-16T16:27:20.927Z,8.80
2022-11-16T16:29:52.262Z,9.95
2022-11-16T16:32:27.754Z,12.15
2022-11-16T16:35:01.530Z,16.52
2022-11-16T16:37:32.487Z,10.15
2022-11-16T16:40:02.973Z,38.53
2022-11-16T16:42:33.713Z,32.70
2022-11-16T16:45:04.072Z,43.10
2022-11-16T16:47:34.105Z,37.38
2022-11-16T16:50:08.059Z,116.18
2022-11-16T16:52:37.902Z,36.15
2022-11-16T16:55:09.079Z,20.50
2022-11-16T16:57:40.118Z,35.83
2022-11-16T17:00:12.505Z,24.63
2022-11-16T17:02:43.066Z,20.58
2022-11-16T17:05:16.536Z,15.57
2022-11-16T17:07:46.967Z,13.80
2022-11-16T17:10:17.669Z,10.40
2022-11-16T17:12:47.529Z,12.98
2022-11-16T17:15:19.467Z,13.18
2022-11-16T17:17:49.640Z,10.45
2022-11-16T17:20:23.159Z,14.32
2022-11-16T17:22:53.018Z,14.23
2022-11-16T17:25:22.897Z,23.05
2022-11-16T17:27:52.766Z,25.17
2022-11-16T17:30:22.781Z,17.45
2022-11-16T17:32:53.243Z,14.10
2022-11-16T17:35:26.096Z,18.45
2022-11-16T17:37:56.457Z,22.88
2022-11-16T17:40:26.880Z,15.40
2022-11-16T17:42:56.740Z,20.40
2022-11-16T17:45:27.594Z,19.25
2022-11-16T17:47:57.629Z,16.60
2022-11-16T17:50:30.441Z,10.93
2022-11-16T17:53:01.033Z,14.85
2022-11-16T17:55:32.701Z,13.73
2022-11-16T17:58:02.607Z,16.75
2022-11-16T18:00:32.478Z,29.50
2022-11-16T18:03:02.367Z,12.07
2022-11-16T18:05:35.335Z,14.13
2022-11-16T18:08:05.248Z,25.00
2022-11-16T18:10:36.611Z,22.98
2022-11-16T18:13:06.619Z,22.52
2022-11-16T18:15:42.097Z,17.63
2022-11-16T18:18:12.561Z,21.20
2022-11-16T18:20:50.820Z,17.20
2022-11-16T18:23:20.772Z,19.80
2022-11-16T18:25:50.650Z,16.58
2022-11-16T18:28:20.610Z,29.73
2022-11-16T18:30:50.494Z,34.70
2022-11-16T18:33:20.439Z,37.88
2022-11-16T18:35:52.898Z,33.60
2022-11-16T18:38:22.777Z,26.48
2022-11-16T18:41:05.871Z,16.23
2022-11-16T18:43:37.053Z,15.10
2022-11-16T18:46:07.551Z,12.23
2022-11-16T18:48:37.577Z,12.93
2022-11-16T18:51:10.153Z,15.52
2022-11-16T18:53:40.144Z,13.27
2022-11-16T18:56:11.964Z,13.55
2022-11-16T18:58:50.730Z,21.25
2022-11-16T19:01:22.782Z,12.18
2022-11-16T19:03:53.059Z,9.15
2022-11-16T19:06:26.310Z,10.13
2022-11-16T19:08:59.839Z,13.13
2022-11-16T19:11:30.545Z,10.68
2022-11-16T19:14:04.368Z,11.55
2022-11-16T19:16:34.749Z,19.27
2022-11-16T19:19:05.101Z,13.27
2022-11-16T19:21:37.535Z,25.95
2022-11-16T19:24:10.273Z,36.65
2022-11-16T19:26:40.918Z,18.48
2022-11-16T19:29:11.060Z,20.65
2022-11-16T19:31:41.146Z,19.58
2022-11-16T19:34:14.172Z,16.25
2022-11-16T19:36:46.859Z,16.35
2022-11-16T19:39:16.901Z,14.23
2022-11-16T19:41:46.762Z,16.13
2022-11-16T19:44:16.654Z,19.77
2022-11-16T19:46:46.541Z,20.92
2022-11-16T19:49:20.084Z,22.65
2022-11-16T19:51:52.889Z,17.30
2022-11-16T19:54:22.942Z,19.98
2022-11-16T19:56:55.232Z,18.73
2022-11-16T19:59:25.275Z,19.88
2022-11-16T20:01:55.111Z,14.45
2022-11-16T20:04:25.588Z,19.02
2022-11-16T20:06:59.124Z,10.88
2022-11-16T20:09:30.112Z,10.65
2022-11-16T20:12:00.453Z,6.55
2022-11-16T20:14:30.368Z,8.05
2022-11-16T20:17:01.126Z,12.63
2022-11-16T20:19:31.623Z,9.73
2022-11-16T20:22:04.349Z,11.13
2022-11-16T20:24:34.756Z,14.07
2022-11-16T20:27:05.541Z,13.85
2022-11-16T20:29:35.509Z,21.10
2022-11-16T20:32:05.350Z,60.22
2022-11-16T20:34:35.469Z,14.93
2022-11-16T20:37:08.732Z,19.15
2022-11-16T20:39:38.782Z,8.20
2022-11-16T20:42:08.763Z,11.48
2022-11-16T20:44:39.321Z,5.53
2022-11-16T20:47:09.539Z,7.05
2022-11-16T20:49:39.384Z,8.75
2022-11-16T20:52:12.146Z,6.35
2022-11-16T20:54:42.516Z,8.68
2022-11-16T20:57:13.175Z,5.75
2022-11-16T20:59:43.017Z,11.70
2022-11-16T21:02:13.164Z,12.95
2022-11-16T21:04:43.008Z,10.88
2022-11-16T21:07:15.491Z,11.35
2022-11-16T21:09:58.540Z,11.65
2022-11-16T21:12:42.913Z,10.95
2022-11-16T21:15:13.441Z,11.43
2022-11-16T21:17:43.299Z,8.88
2022-11-16T21:20:27.506Z,8.40
2022-11-16T21:23:00.888Z,12.18
2022-11-16T21:25:30.847Z,7.60
2022-11-16T21:28:02.188Z,7.35
2022-11-16T21:30:32.035Z,9.30
2022-11-16T21:33:01.861Z,17.90
2022-11-16T21:35:31.828Z,10.07
2022-11-16T21:38:05.158Z,12.07
2022-11-16T21:40:35.847Z,8.55
2022-11-16T21:43:05.760Z,9.40
2022-11-16T21:45:35.733Z,13.02
2022-11-16T21:48:05.584Z,12.85
2022-11-16T21:50:36.378Z,10.85
2022-11-16T21:53:09.477Z,19.70
2022-11-16T21:55:39.536Z,14.15
2022-11-16T21:58:09.372Z,7.43
2022-11-16T22:00:39.242Z,8.05
2022-11-16T22:03:09.113Z,5.95
2022-11-16T22:05:51.404Z,31.30
2022-11-16T22:08:24.288Z,21.52
2022-11-16T22:10:54.673Z,12.07
2022-11-16T22:13:24.794Z,7.15
2022-11-16T22:15:55.089Z,7.53
2022-11-16T22:18:24.997Z,4.43
2022-11-16T22:20:54.871Z,5.90
2022-11-16T22:23:27.351Z,6.07
2022-11-16T22:25:58.014Z,5.65
2022-11-16T22:28:28.032Z,5.47
2022-11-16T22:31:03.857Z,8.25
2022-11-16T22:33:34.460Z,8.48
2022-11-16T22:36:04.681Z,6.50
2022-11-16T22:38:37.225Z,8.75
2022-11-16T22:41:08.733Z,4.28
2022-11-16T22:43:39.150Z,4.75
2022-11-16T22:46:09.924Z,4.50
2022-11-16T22:48:41.275Z,2.83
2022-11-16T22:51:17.473Z,2.58
2022-11-16T22:53:50.259Z,5.60
2022-11-16T22:56:20.108Z,3.47
2022-11-16T22:58:49.965Z,3.58
2022-11-16T23:01:20.021Z,3.00
2022-11-16T23:03:51.129Z,3.80
2022-11-16T23:06:21.209Z,3.08
2022-11-16T23:08:53.969Z,3.28
2022-11-16T23:11:37.650Z,2.92
2022-11-16T23:14:21.267Z,3.72
2022-11-16T23:16:51.480Z,2.60
2022-11-16T23:19:34.670Z,2.42
2022-11-16T23:22:17.030Z,3.25
2022-11-16T23:25:02.065Z,2.65
2022-11-16T23:27:39.804Z,3.25
2022-11-16T23:30:13.186Z,3.50
2022-11-16T23:32:43.429Z,4.00
2022-11-16T23:35:13.809Z,4.57
2022-11-16T23:37:54.358Z,4.57
2022-11-16T23:40:28.270Z,3.25
2022-11-16T23:43:11.088Z,4.60
2022-11-16T23:45:44.561Z,3.53
2022-11-16T23:48:16.323Z,3.40
2022-11-16T23:50:47.684Z,2.70
2022-11-16T23:53:17.535Z,2.42
2022-11-16T23:55:50.466Z,3.47
2022-11-16T23:58:20.433Z,3.15
